Christine Anderson — WCN2606 — position and weather

sailwx.info

Track history (hours):
 
Tides and Currents Weather Stations Pressure Air Temp Water Temp Dewpoint Dewpoint Depression Visibility Wind Speed Wind Dir Waves Ship Positions

Christine Anderson

Owner: PIERCE, COUNTY OF, TACOMA, WA. More information available from US FCC via Universal Licensing System and Coast Guard Vessel Documentation Center.

Last reported at 2015-Feb-25 21:32 UTC. Time now 2015-Mar-01 15:12 UTC.
Position N 47°10' W 122°36'.

MMSI: 366659730.

Date/timePositionNaut miles runAvg speedWind from/ knotsBaromVisibWave heightAir tempDewpointWater temp
2015-Feb-25 21:32N 47°10' W 122°36'0 0.0
2015-Feb-25 20:33N 47°10' W 122°36'0 0.0
2015-Feb-25 19:33N 47°10' W 122°36'0 0.0
2015-Feb-23 21:15N 47°10' W 122°36'3 3.7
2015-Feb-23 20:33N 47°11' W 122°40'3 2.5
2015-Feb-23 19:33N 47°10' W 122°36'3 2.6
2015-Feb-23 18:33N 47°11' W 122°40'1 1.2
2015-Feb-23 17:38N 47°11' W 122°38'111.6
2015-Feb-23 17:32N 47°11' W 122°40'0 0.4
2015-Feb-23 16:28N 47°11' W 122°41'0 0.2
2015-Feb-23 15:15N 47°11' W 122°40'3 4.1
2015-Feb-23 14:34N 47°10' W 122°36'0 0.0
2015-Feb-23 05:28N 47°10' W 122°36'1 1.5
2015-Feb-23 04:46N 47°11' W 122°38'1 5.0
2015-Feb-23 04:34N 47°10' W 122°36'0 0.4
2015-Feb-23 04:16N 47°11' W 122°36'1 0.9
2015-Feb-23 03:34N 47°11' W 122°37'0 0.1
2015-Feb-23 02:34N 47°11' W 122°37'1 2.5
2015-Feb-23 02:16N 47°10' W 122°36'3 4.3
2015-Feb-23 01:34N 47°11' W 122°41'3 4.7
2015-Feb-23 00:55N 47°11' W 122°36'3 6.5
2015-Feb-23 00:27N 47°11' W 122°41'3 5.4
2015-Feb-22 23:54N 47°11' W 122°36'3 6.2
2015-Feb-22 23:26N 47°11' W 122°41'0 0.1
2015-Feb-22 22:33N 47°11' W 122°41'3 5.1
2015-Feb-22 21:57N 47°10' W 122°36'0 0.0
2015-Feb-22 21:32N 47°10' W 122°36'0 0.0
2015-Feb-22 21:12N 47°10' W 122°36'3 4.4
2015-Feb-22 20:33N 47°11' W 122°40'0 1.3
2015-Feb-22 20:22N 47°11' W 122°41'3 3.7
2015-Feb-22 19:33N 47°10' W 122°36'2 2.4
2015-Feb-22 18:33N 47°11' W 122°40'2 4.1
2015-Feb-22 18:01N 47°11' W 122°36'2 4.9
2015-Feb-22 17:33N 47°11' W 122°40'0 0.0
2015-Feb-22 16:33N 47°11' W 122°40'1 5.4
2015-Feb-22 16:25N 47°11' W 122°41'0 0.5
2015-Feb-22 15:32N 47°11' W 122°40'3 3.3
2015-Feb-22 14:45N 47°10' W 122°36'0 0.1
2015-Feb-22 14:34N 47°10' W 122°36'0 0.0
2015-Feb-22 14:25N 47°10' W 122°36'2 0.3
2015-Feb-22 06:33N 47°11' W 122°40'2 4.2
2015-Feb-22 05:59N 47°10' W 122°36'0 0.0
2015-Feb-22 05:33N 47°10' W 122°36'1 5.2
2015-Feb-22 05:18N 47°11' W 122°38'1 1.7
2015-Feb-22 04:33N 47°10' W 122°36'0 0.0
2015-Feb-22 04:19N 47°10' W 122°36'0 0.1
2015-Feb-22 03:33N 47°10' W 122°36'0 0.1
2015-Feb-22 02:33N 47°10' W 122°36'1 1.0
2015-Feb-22 01:33N 47°11' W 122°38'1 0.9
2015-Feb-22 00:28N 47°10' W 122°36'0 0.0
2015-Feb-22 00:07N 47°10' W 122°36'3 5.3
2015-Feb-21 23:33N 47°11' W 122°41'3 5.9
2015-Feb-21 23:01N 47°10' W 122°36'3 6.4
2015-Feb-21 22:33N 47°11' W 122°41'3 3.0
2015-Feb-21 21:33N 47°10' W 122°36'0 0.0
2015-Feb-21 21:07N 47°10' W 122°36'3 4.7
2015-Feb-21 20:33N 47°11' W 122°40'3 2.6
2015-Feb-21 19:33N 47°10' W 122°36'0 0.0
2015-Feb-21 19:31N 47°10' W 122°36'2 2.5
2015-Feb-21 18:33N 47°11' W 122°40'0 0.0
2015-Feb-21 17:33N 47°11' W 122°40'0 0.0
2015-Feb-21 16:33N 47°11' W 122°40'0 0.1
2015-Feb-21 15:33N 47°11' W 122°40'2 2.5
2015-Feb-21 14:33N 47°10' W 122°36'0 0.0
2015-Feb-21 13:33N 47°10' W 122°36'0 0.0
2015-Feb-21 07:05N 47°10' W 122°36'3 4.8
2015-Feb-21 06:33N 47°11' W 122°40'3 2.6
2015-Feb-21 05:33N 47°10' W 122°36'0 0.0
2015-Feb-21 04:33N 47°10' W 122°36'0 0.3
2015-Feb-21 03:33N 47°11' W 122°37'0 0.1
2015-Feb-21 02:33N 47°11' W 122°36'3 2.8
2015-Feb-21 01:33N 47°11' W 122°41'0 0.0
2015-Feb-21 00:32N 47°11' W 122°41'0 0.0
2015-Feb-20 23:30N 47°11' W 122°41'0 0.0
2015-Feb-20 22:32N 47°11' W 122°41'3 3.0
2015-Feb-20 21:32N 47°10' W 122°36'2 1.7
2015-Feb-20 20:38N 47°11' W 122°38'112.7
2015-Feb-20 20:33N 47°11' W 122°40'1 2.7
2015-Feb-20 20:08N 47°11' W 122°38'1 2.2
2015-Feb-20 19:33N 47°10' W 122°36'2 2.4
2015-Feb-20 18:33N 47°11' W 122°40'0 1.6
2015-Feb-20 18:16N 47°11' W 122°40'0 0.1
2015-Feb-20 17:33N 47°11' W 122°40'0 0.1
2015-Feb-20 16:33N 47°11' W 122°41'1 0.6
2015-Feb-20 15:33N 47°11' W 122°40'012.1
2015-Feb-20 15:31N 47°11' W 122°40'3 3.0
2015-Feb-20 14:33N 47°10' W 122°36'0 0.0
2015-Feb-20 13:33N 47°10' W 122°36'1 0.1
2015-Feb-20 05:33N 47°10' W 122°37'2 5.9
2015-Feb-20 05:09N 47°11' W 122°41'3 5.0
2015-Feb-20 04:33N 47°10' W 122°36'0 0.4
2015-Feb-20 03:33N 47°11' W 122°37'0 0.1
2015-Feb-20 02:33N 47°11' W 122°37'3 2.8
2015-Feb-20 01:33N 47°11' W 122°41'3 8.6
2015-Feb-20 01:12N 47°10' W 122°36'3 4.6
2015-Feb-20 00:33N 47°11' W 122°41'0 0.0
2015-Feb-19 23:30N 47°11' W 122°41'0 0.3
2015-Feb-19 22:42N 47°11' W 122°40'0 1.3
2015-Feb-19 22:30N 47°11' W 122°41'3 3.1
2015-Feb-19 21:32N 47°10' W 122°36'3 2.9
2015-Feb-19 20:33N 47°11' W 122°40'3 2.8
2015-Feb-19 19:32N 47°10' W 122°36'2 2.6
2015-Feb-19 18:33N 47°11' W 122°40'0 0.4
2015-Feb-19 17:33N 47°11' W 122°40'0 1.0
2015-Feb-19 17:24N 47°11' W 122°41'0 0.0
2015-Feb-19 16:33N 47°11' W 122°41'0 0.0
2015-Feb-19 16:29N 47°11' W 122°41'0 0.4
2015-Feb-19 15:33N 47°11' W 122°40'0 4.2
2015-Feb-19 15:29N 47°11' W 122°41'3 3.3
2015-Feb-19 14:33N 47°11' W 122°36'3 6.0
2015-Feb-19 14:03N 47°11' W 122°41'3 6.0
2015-Feb-19 13:33N 47°10' W 122°36'0 0.0
2015-Feb-19 04:20N 47°10' W 122°36'0 0.6
2015-Feb-19 03:33N 47°11' W 122°37'0 0.1
2015-Feb-19 02:33N 47°11' W 122°37'3 2.5
2015-Feb-19 01:33N 47°11' W 122°40'0 0.1
2015-Feb-19 00:33N 47°11' W 122°41'0 0.0
2015-Feb-18 23:32N 47°11' W 122°41'0 0.0
2015-Feb-18 22:33N 47°11' W 122°41'3 3.0
2015-Feb-18 21:33N 47°10' W 122°36'3 2.8
2015-Feb-18 20:33N 47°11' W 122°40'3 4.8
2015-Feb-18 19:59N 47°10' W 122°36'0 0.0
2015-Feb-18 19:32N 47°10' W 122°36'0 5.8
2015-Feb-18 19:28N 47°11' W 122°36'3 2.8
2015-Feb-18 18:33N 47°11' W 122°40'0 0.4
2015-Feb-18 17:33N 47°11' W 122°40'0 0.2
2015-Feb-18 16:33N 47°11' W 122°40'0 0.1
2015-Feb-18 15:33N 47°11' W 122°40'2 2.4
2015-Feb-18 14:33N 47°10' W 122°36'2 9.5
2015-Feb-18 14:23N 47°11' W 122°38'2 1.7
2015-Feb-18 13:28N 47°10' W 122°36'0 0.0
2015-Feb-18 04:18N 47°10' W 122°36'0 0.3
2015-Feb-18 04:16N 47°10' W 122°36'0 0.6
2015-Feb-18 03:33N 47°11' W 122°37'0 0.1
2015-Feb-18 02:33N 47°11' W 122°37'3 2.7
2015-Feb-18 01:34N 47°11' W 122°41'3 9.6
2015-Feb-18 01:16N 47°11' W 122°36'3 4.1
2015-Feb-18 00:34N 47°11' W 122°41'310.0
2015-Feb-18 00:16N 47°11' W 122°36'3 3.9
2015-Feb-17 23:30N 47°11' W 122°41'0 0.1
2015-Feb-17 22:29N 47°11' W 122°40'3 2.9
2015-Feb-17 21:29N 47°10' W 122°36'3 3.0
2015-Feb-17 20:34N 47°11' W 122°40'3 2.5
2015-Feb-17 19:26N 47°10' W 122°36'3 1.4
2015-Feb-17 17:33N 47°11' W 122°40'0 0.0
2015-Feb-17 16:34N 47°11' W 122°40'0 0.0
2015-Feb-17 15:33N 47°11' W 122°40'3 2.5
2015-Feb-17 14:34N 47°10' W 122°36'0 0.0
2015-Feb-17 13:33N 47°10' W 122°36'0 0.0
2015-Feb-17 04:17N 47°10' W 122°36'0 0.0
2015-Feb-17 04:17N 47°10' W 122°36'0 0.1
2015-Feb-17 03:33N 47°10' W 122°36'3 5.0
2015-Feb-17 03:02N 47°11' W 122°40'2 4.8
2015-Feb-17 02:33N 47°11' W 122°37'010.0
2015-Feb-17 02:32N 47°11' W 122°36'3 3.0
2015-Feb-17 01:33N 47°11' W 122°41'3 8.2
2015-Feb-17 01:12N 47°11' W 122°36'3 4.5
2015-Feb-17 00:33N 47°11' W 122°41'0 0.0
2015-Feb-16 23:36N 47°11' W 122°41'0 0.0
2015-Feb-16 23:33N 47°11' W 122°41'0 0.0
2015-Feb-16 22:33N 47°11' W 122°41'3 2.2
2015-Feb-16 21:11N 47°10' W 122°36'3 4.0
2015-Feb-16 20:33N 47°11' W 122°40'3 2.6
2015-Feb-16 19:33N 47°10' W 122°36'3 2.5
2015-Feb-16 18:33N 47°11' W 122°40'0 0.0
2015-Feb-16 17:33N 47°11' W 122°40'0 0.0
2015-Feb-16 16:33N 47°11' W 122°40'0 0.1
2015-Feb-16 15:33N 47°11' W 122°40'2 2.4
2015-Feb-16 14:33N 47°10' W 122°36'0 0.0
2015-Feb-16 13:33N 47°10' W 122°36'0 0.0
2015-Feb-16 05:29N 47°10' W 122°36'3 4.6
2015-Feb-16 04:56N 47°11' W 122°40'3 6.7
2015-Feb-16 04:33N 47°10' W 122°36'1 0.6
2015-Feb-16 03:33N 47°11' W 122°37'0 0.1
2015-Feb-16 02:33N 47°11' W 122°37'1 1.5
2015-Feb-16 02:09N 47°11' W 122°36'3 4.9
2015-Feb-16 01:33N 47°11' W 122°41'0 0.0
2015-Feb-16 00:33N 47°11' W 122°41'1 0.9
2015-Feb-15 23:20N 47°11' W 122°39'2 5.3
2015-Feb-15 22:58N 47°10' W 122°36'3 7.5
2015-Feb-15 22:33N 47°11' W 122°41'3 3.0
2015-Feb-15 21:33N 47°10' W 122°36'0 0.0
2015-Feb-15 21:33N 47°10' W 122°36'  
Track history (hours):
 
Tides and Currents Weather Stations Pressure Air Temp Water Temp Dewpoint Dewpoint Depression Visibility Wind Speed Wind Dir Waves Ship Positions

Christine Anderson

Owner: PIERCE, COUNTY OF, TACOMA, WA. More information available from US FCC via Universal Licensing System and Coast Guard Vessel Documentation Center.

Last reported at 2015-Feb-25 21:32 UTC. Time now 2015-Mar-01 15:12 UTC.
Position N 47°10' W 122°36'.

MMSI: 366659730.

Date/timePositionNaut miles runAvg speedWind from/ knotsBaromVisibWave heightAir tempDewpointWater temp
2015-Feb-25 21:32N 47°10' W 122°36'0 0.0
2015-Feb-25 20:33N 47°10' W 122°36'0 0.0
2015-Feb-25 19:33N 47°10' W 122°36'0 0.0
2015-Feb-23 21:15N 47°10' W 122°36'3 3.7
2015-Feb-23 20:33N 47°11' W 122°40'3 2.5
2015-Feb-23 19:33N 47°10' W 122°36'3 2.6
2015-Feb-23 18:33N 47°11' W 122°40'1 1.2
2015-Feb-23 17:38N 47°11' W 122°38'111.6
2015-Feb-23 17:32N 47°11' W 122°40'0 0.4
2015-Feb-23 16:28N 47°11' W 122°41'0 0.2
2015-Feb-23 15:15N 47°11' W 122°40'3 4.1
2015-Feb-23 14:34N 47°10' W 122°36'0 0.0
2015-Feb-23 05:28N 47°10' W 122°36'1 1.5
2015-Feb-23 04:46N 47°11' W 122°38'1 5.0
2015-Feb-23 04:34N 47°10' W 122°36'0 0.4
2015-Feb-23 04:16N 47°11' W 122°36'1 0.9
2015-Feb-23 03:34N 47°11' W 122°37'0 0.1
2015-Feb-23 02:34N 47°11' W 122°37'1 2.5
2015-Feb-23 02:16N 47°10' W 122°36'3 4.3
2015-Feb-23 01:34N 47°11' W 122°41'3 4.7
2015-Feb-23 00:55N 47°11' W 122°36'3 6.5
2015-Feb-23 00:27N 47°11' W 122°41'3 5.4
2015-Feb-22 23:54N 47°11' W 122°36'3 6.2
2015-Feb-22 23:26N 47°11' W 122°41'0 0.1
2015-Feb-22 22:33N 47°11' W 122°41'3 5.1
2015-Feb-22 21:57N 47°10' W 122°36'0 0.0
2015-Feb-22 21:32N 47°10' W 122°36'0 0.0
2015-Feb-22 21:12N 47°10' W 122°36'3 4.4
2015-Feb-22 20:33N 47°11' W 122°40'0 1.3
2015-Feb-22 20:22N 47°11' W 122°41'3 3.7
2015-Feb-22 19:33N 47°10' W 122°36'2 2.4
2015-Feb-22 18:33N 47°11' W 122°40'2 4.1
2015-Feb-22 18:01N 47°11' W 122°36'2 4.9
2015-Feb-22 17:33N 47°11' W 122°40'0 0.0
2015-Feb-22 16:33N 47°11' W 122°40'1 5.4
2015-Feb-22 16:25N 47°11' W 122°41'0 0.5
2015-Feb-22 15:32N 47°11' W 122°40'3 3.3
2015-Feb-22 14:45N 47°10' W 122°36'0 0.1
2015-Feb-22 14:34N 47°10' W 122°36'0 0.0
2015-Feb-22 14:25N 47°10' W 122°36'2 0.3
2015-Feb-22 06:33N 47°11' W 122°40'2 4.2
2015-Feb-22 05:59N 47°10' W 122°36'0 0.0
2015-Feb-22 05:33N 47°10' W 122°36'1 5.2
2015-Feb-22 05:18N 47°11' W 122°38'1 1.7
2015-Feb-22 04:33N 47°10' W 122°36'0 0.0
2015-Feb-22 04:19N 47°10' W 122°36'0 0.1
2015-Feb-22 03:33N 47°10' W 122°36'0 0.1
2015-Feb-22 02:33N 47°10' W 122°36'1 1.0
2015-Feb-22 01:33N 47°11' W 122°38'1 0.9
2015-Feb-22 00:28N 47°10' W 122°36'0 0.0
2015-Feb-22 00:07N 47°10' W 122°36'3 5.3
2015-Feb-21 23:33N 47°11' W 122°41'3 5.9
2015-Feb-21 23:01N 47°10' W 122°36'3 6.4
2015-Feb-21 22:33N 47°11' W 122°41'3 3.0
2015-Feb-21 21:33N 47°10' W 122°36'0 0.0
2015-Feb-21 21:07N 47°10' W 122°36'3 4.7
2015-Feb-21 20:33N 47°11' W 122°40'3 2.6
2015-Feb-21 19:33N 47°10' W 122°36'0 0.0
2015-Feb-21 19:31N 47°10' W 122°36'2 2.5
2015-Feb-21 18:33N 47°11' W 122°40'0 0.0
2015-Feb-21 17:33N 47°11' W 122°40'0 0.0
2015-Feb-21 16:33N 47°11' W 122°40'0 0.1
2015-Feb-21 15:33N 47°11' W 122°40'2 2.5
2015-Feb-21 14:33N 47°10' W 122°36'0 0.0
2015-Feb-21 13:33N 47°10' W 122°36'0 0.0
2015-Feb-21 07:05N 47°10' W 122°36'3 4.8
2015-Feb-21 06:33N 47°11' W 122°40'3 2.6
2015-Feb-21 05:33N 47°10' W 122°36'0 0.0
2015-Feb-21 04:33N 47°10' W 122°36'0 0.3
2015-Feb-21 03:33N 47°11' W 122°37'0 0.1
2015-Feb-21 02:33N 47°11' W 122°36'3 2.8
2015-Feb-21 01:33N 47°11' W 122°41'0 0.0
2015-Feb-21 00:32N 47°11' W 122°41'0 0.0
2015-Feb-20 23:30N 47°11' W 122°41'0 0.0
2015-Feb-20 22:32N 47°11' W 122°41'3 3.0
2015-Feb-20 21:32N 47°10' W 122°36'2 1.7
2015-Feb-20 20:38N 47°11' W 122°38'112.7
2015-Feb-20 20:33N 47°11' W 122°40'1 2.7
2015-Feb-20 20:08N 47°11' W 122°38'1 2.2
2015-Feb-20 19:33N 47°10' W 122°36'2 2.4
2015-Feb-20 18:33N 47°11' W 122°40'0 1.6
2015-Feb-20 18:16N 47°11' W 122°40'0 0.1
2015-Feb-20 17:33N 47°11' W 122°40'0 0.1
2015-Feb-20 16:33N 47°11' W 122°41'1 0.6
2015-Feb-20 15:33N 47°11' W 122°40'012.1
2015-Feb-20 15:31N 47°11' W 122°40'3 3.0
2015-Feb-20 14:33N 47°10' W 122°36'0 0.0
2015-Feb-20 13:33N 47°10' W 122°36'1 0.1
2015-Feb-20 05:33N 47°10' W 122°37'2 5.9
2015-Feb-20 05:09N 47°11' W 122°41'3 5.0
2015-Feb-20 04:33N 47°10' W 122°36'0 0.4
2015-Feb-20 03:33N 47°11' W 122°37'0 0.1
2015-Feb-20 02:33N 47°11' W 122°37'3 2.8
2015-Feb-20 01:33N 47°11' W 122°41'3 8.6
2015-Feb-20 01:12N 47°10' W 122°36'3 4.6
2015-Feb-20 00:33N 47°11' W 122°41'0 0.0
2015-Feb-19 23:30N 47°11' W 122°41'0 0.3
2015-Feb-19 22:42N 47°11' W 122°40'0 1.3
2015-Feb-19 22:30N 47°11' W 122°41'3 3.1
2015-Feb-19 21:32N 47°10' W 122°36'3 2.9
2015-Feb-19 20:33N 47°11' W 122°40'3 2.8
2015-Feb-19 19:32N 47°10' W 122°36'2 2.6
2015-Feb-19 18:33N 47°11' W 122°40'0 0.4
2015-Feb-19 17:33N 47°11' W 122°40'0 1.0
2015-Feb-19 17:24N 47°11' W 122°41'0 0.0
2015-Feb-19 16:33N 47°11' W 122°41'0 0.0
2015-Feb-19 16:29N 47°11' W 122°41'0 0.4
2015-Feb-19 15:33N 47°11' W 122°40'0 4.2
2015-Feb-19 15:29N 47°11' W 122°41'3 3.3
2015-Feb-19 14:33N 47°11' W 122°36'3 6.0
2015-Feb-19 14:03N 47°11' W 122°41'3 6.0
2015-Feb-19 13:33N 47°10' W 122°36'0 0.0
2015-Feb-19 04:20N 47°10' W 122°36'0 0.6
2015-Feb-19 03:33N 47°11' W 122°37'0 0.1
2015-Feb-19 02:33N 47°11' W 122°37'3 2.5
2015-Feb-19 01:33N 47°11' W 122°40'0 0.1
2015-Feb-19 00:33N 47°11' W 122°41'0 0.0
2015-Feb-18 23:32N 47°11' W 122°41'0 0.0
2015-Feb-18 22:33N 47°11' W 122°41'3 3.0
2015-Feb-18 21:33N 47°10' W 122°36'3 2.8
2015-Feb-18 20:33N 47°11' W 122°40'3 4.8
2015-Feb-18 19:59N 47°10' W 122°36'0 0.0
2015-Feb-18 19:32N 47°10' W 122°36'0 5.8
2015-Feb-18 19:28N 47°11' W 122°36'3 2.8
2015-Feb-18 18:33N 47°11' W 122°40'0 0.4
2015-Feb-18 17:33N 47°11' W 122°40'0 0.2
2015-Feb-18 16:33N 47°11' W 122°40'0 0.1
2015-Feb-18 15:33N 47°11' W 122°40'2 2.4
2015-Feb-18 14:33N 47°10' W 122°36'2 9.5
2015-Feb-18 14:23N 47°11' W 122°38'2 1.7
2015-Feb-18 13:28N 47°10' W 122°36'0 0.0
2015-Feb-18 04:18N 47°10' W 122°36'0 0.3
2015-Feb-18 04:16N 47°10' W 122°36'0 0.6
2015-Feb-18 03:33N 47°11' W 122°37'0 0.1
2015-Feb-18 02:33N 47°11' W 122°37'3 2.7
2015-Feb-18 01:34N 47°11' W 122°41'3 9.6
2015-Feb-18 01:16N 47°11' W 122°36'3 4.1
2015-Feb-18 00:34N 47°11' W 122°41'310.0
2015-Feb-18 00:16N 47°11' W 122°36'3 3.9
2015-Feb-17 23:30N 47°11' W 122°41'0 0.1
2015-Feb-17 22:29N 47°11' W 122°40'3 2.9
2015-Feb-17 21:29N 47°10' W 122°36'3 3.0
2015-Feb-17 20:34N 47°11' W 122°40'3 2.5
2015-Feb-17 19:26N 47°10' W 122°36'3 1.4
2015-Feb-17 17:33N 47°11' W 122°40'0 0.0
2015-Feb-17 16:34N 47°11' W 122°40'0 0.0
2015-Feb-17 15:33N 47°11' W 122°40'3 2.5
2015-Feb-17 14:34N 47°10' W 122°36'0 0.0
2015-Feb-17 13:33N 47°10' W 122°36'0 0.0
2015-Feb-17 04:17N 47°10' W 122°36'0 0.0
2015-Feb-17 04:17N 47°10' W 122°36'0 0.1
2015-Feb-17 03:33N 47°10' W 122°36'3 5.0
2015-Feb-17 03:02N 47°11' W 122°40'2 4.8
2015-Feb-17 02:33N 47°11' W 122°37'010.0
2015-Feb-17 02:32N 47°11' W 122°36'3 3.0
2015-Feb-17 01:33N 47°11' W 122°41'3 8.2
2015-Feb-17 01:12N 47°11' W 122°36'3 4.5
2015-Feb-17 00:33N 47°11' W 122°41'0 0.0
2015-Feb-16 23:36N 47°11' W 122°41'0 0.0
2015-Feb-16 23:33N 47°11' W 122°41'0 0.0
2015-Feb-16 22:33N 47°11' W 122°41'3 2.2
2015-Feb-16 21:11N 47°10' W 122°36'3 4.0
2015-Feb-16 20:33N 47°11' W 122°40'3 2.6
2015-Feb-16 19:33N 47°10' W 122°36'3 2.5
2015-Feb-16 18:33N 47°11' W 122°40'0 0.0
2015-Feb-16 17:33N 47°11' W 122°40'0 0.0
2015-Feb-16 16:33N 47°11' W 122°40'0 0.1
2015-Feb-16 15:33N 47°11' W 122°40'2 2.4
2015-Feb-16 14:33N 47°10' W 122°36'0 0.0
2015-Feb-16 13:33N 47°10' W 122°36'0 0.0
2015-Feb-16 05:29N 47°10' W 122°36'3 4.6
2015-Feb-16 04:56N 47°11' W 122°40'3 6.7
2015-Feb-16 04:33N 47°10' W 122°36'1 0.6
2015-Feb-16 03:33N 47°11' W 122°37'0 0.1
2015-Feb-16 02:33N 47°11' W 122°37'1 1.5
2015-Feb-16 02:09N 47°11' W 122°36'3 4.9
2015-Feb-16 01:33N 47°11' W 122°41'0 0.0
2015-Feb-16 00:33N 47°11' W 122°41'1 0.9
2015-Feb-15 23:20N 47°11' W 122°39'2 5.3
2015-Feb-15 22:58N 47°10' W 122°36'3 7.5
2015-Feb-15 22:33N 47°11' W 122°41'3 3.0
2015-Feb-15 21:33N 47°10' W 122°36'0 0.0
2015-Feb-15 21:33N 47°10' W 122°36'  

Dump ship's entire track history